sensor_id;sensor_type;location;lat;lon;timestamp;temperature;humidity
31809;DHT22;18379;48.208;-1.518;2024-02-21T00:04:32;10.60;99.90
31809;DHT22;18379;48.208;-1.518;2024-02-21T00:09:32;10.60;99.90
31809;DHT22;18379;48.208;-1.518;2024-02-21T00:14:33;10.60;99.90
31809;DHT22;18379;48.208;-1.518;2024-02-21T00:19:34;10.70;99.90
31809;DHT22;18379;48.208;-1.518;2024-02-21T00:24:35;10.70;99.90
31809;DHT22;18379;48.208;-1.518;2024-02-21T00:29:36;10.60;99.90
31809;DHT22;18379;48.208;-1.518;2024-02-21T00:34:36;10.60;99.90
31809;DHT22;18379;48.208;-1.518;2024-02-21T00:39:37;10.60;99.90
31809;DHT22;18379;48.208;-1.518;2024-02-21T00:44:37;10.60;99.90
31809;DHT22;18379;48.208;-1.518;2024-02-21T00:49:38;10.50;99.90
31809;DHT22;18379;48.208;-1.518;2024-02-21T00:54:39;10.50;99.90
31809;DHT22;18379;48.208;-1.518;2024-02-21T00:59:39;10.60;99.90
31809;DHT22;18379;48.208;-1.518;2024-02-21T01:04:40;10.60;99.90
31809;DHT22;18379;48.208;-1.518;2024-02-21T01:09:40;10.50;99.90
31809;DHT22;18379;48.208;-1.518;2024-02-21T01:14:41;10.40;99.90
31809;DHT22;18379;48.208;-1.518;2024-02-21T01:19:42;10.40;99.90
31809;DHT22;18379;48.208;-1.518;2024-02-21T01:24:42;10.40;99.90
31809;DHT22;18379;48.208;-1.518;2024-02-21T01:29:43;10.30;99.90
31809;DHT22;18379;48.208;-1.518;2024-02-21T01:34:44;10.50;99.90
31809;DHT22;18379;48.208;-1.518;2024-02-21T01:39:44;10.50;99.90
31809;DHT22;18379;48.208;-1.518;2024-02-21T01:44:45;10.60;99.90
31809;DHT22;18379;48.208;-1.518;2024-02-21T01:49:46;10.60;99.90
31809;DHT22;18379;48.208;-1.518;2024-02-21T01:54:47;10.50;99.90
31809;DHT22;18379;48.208;-1.518;2024-02-21T01:59:48;10.40;99.90
31809;DHT22;18379;48.208;-1.518;2024-02-21T02:04:49;10.30;99.90
31809;DHT22;18379;48.208;-1.518;2024-02-21T02:09:50;10.30;99.90
31809;DHT22;18379;48.208;-1.518;2024-02-21T02:15:00;10.30;99.90
31809;DHT22;18379;48.208;-1.518;2024-02-21T02:20:01;10.20;99.90
31809;DHT22;18379;48.208;-1.518;2024-02-21T02:25:02;10.30;99.90
31809;DHT22;18379;48.208;-1.518;2024-02-21T02:30:03;10.20;99.90
31809;DHT22;18379;48.208;-1.518;2024-02-21T02:35:04;10.20;99.90
31809;DHT22;18379;48.208;-1.518;2024-02-21T02:40:06;10.20;99.90
31809;DHT22;18379;48.208;-1.518;2024-02-21T02:45:08;10.10;99.90
31809;DHT22;18379;48.208;-1.518;2024-02-21T02:50:09;10.10;99.90
31809;DHT22;18379;48.208;-1.518;2024-02-21T02:55:10;10.20;99.90
31809;DHT22;18379;48.208;-1.518;2024-02-21T03:00:12;10.10;99.90
31809;DHT22;18379;48.208;-1.518;2024-02-21T03:05:17;10.00;99.90
31809;DHT22;18379;48.208;-1.518;2024-02-21T03:10:18;10.00;99.90
31809;DHT22;18379;48.208;-1.518;2024-02-21T03:15:19;10.10;99.90
31809;DHT22;18379;48.208;-1.518;2024-02-21T03:20:20;10.10;99.90
31809;DHT22;18379;48.208;-1.518;2024-02-21T03:25:20;10.00;99.90
31809;DHT22;18379;48.208;-1.518;2024-02-21T03:30:21;10.00;99.90
31809;DHT22;18379;48.208;-1.518;2024-02-21T03:35:22;10.10;99.90
31809;DHT22;18379;48.208;-1.518;2024-02-21T03:40:26;10.10;99.90
31809;DHT22;18379;48.208;-1.518;2024-02-21T03:45:27;10.10;99.90
31809;DHT22;18379;48.208;-1.518;2024-02-21T03:50:27;10.10;99.90
31809;DHT22;18379;48.208;-1.518;2024-02-21T03:55:29;10.10;99.90
31809;DHT22;18379;48.208;-1.518;2024-02-21T04:00:29;10.10;99.90
31809;DHT22;18379;48.208;-1.518;2024-02-21T04:05:30;10.10;99.90
31809;DHT22;18379;48.208;-1.518;2024-02-21T04:10:31;10.10;99.90
31809;DHT22;18379;48.208;-1.518;2024-02-21T04:15:31;10.10;99.90
31809;DHT22;18379;48.208;-1.518;2024-02-21T04:20:32;10.10;99.90
31809;DHT22;18379;48.208;-1.518;2024-02-21T04:25:33;10.10;99.90
31809;DHT22;18379;48.208;-1.518;2024-02-21T04:30:33;10.10;99.90
31809;DHT22;18379;48.208;-1.518;2024-02-21T04:35:36;10.10;99.90
31809;DHT22;18379;48.208;-1.518;2024-02-21T04:40:36;10.10;99.90
31809;DHT22;18379;48.208;-1.518;2024-02-21T04:45:37;10.20;99.90
31809;DHT22;18379;48.208;-1.518;2024-02-21T04:50:38;10.20;99.90
31809;DHT22;18379;48.208;-1.518;2024-02-21T04:55:38;10.10;99.90
31809;DHT22;18379;48.208;-1.518;2024-02-21T05:06:16;10.20;99.90
31809;DHT22;18379;48.208;-1.518;2024-02-21T05:11:17;10.10;99.90
31809;DHT22;18379;48.208;-1.518;2024-02-21T05:16:17;10.10;99.90
31809;DHT22;18379;48.208;-1.518;2024-02-21T05:21:19;10.00;99.90
31809;DHT22;18379;48.208;-1.518;2024-02-21T05:26:21;10.20;99.90
31809;DHT22;18379;48.208;-1.518;2024-02-21T05:31:22;10.20;99.90
31809;DHT22;18379;48.208;-1.518;2024-02-21T05:36:23;10.10;99.90
31809;DHT22;18379;48.208;-1.518;2024-02-21T05:41:24;10.20;99.90
31809;DHT22;18379;48.208;-1.518;2024-02-21T05:46:24;10.10;99.90
31809;DHT22;18379;48.208;-1.518;2024-02-21T05:51:25;10.10;99.90
31809;DHT22;18379;48.208;-1.518;2024-02-21T05:56:26;10.10;99.90
31809;DHT22;18379;48.208;-1.518;2024-02-21T06:01:27;10.00;99.90
31809;DHT22;18379;48.208;-1.518;2024-02-21T06:06:28;10.00;99.90
31809;DHT22;18379;48.208;-1.518;2024-02-21T06:11:29;10.00;99.90
31809;DHT22;18379;48.208;-1.518;2024-02-21T06:16:29;10.00;99.90
31809;DHT22;18379;48.208;-1.518;2024-02-21T06:21:30;10.00;99.90
31809;DHT22;18379;48.208;-1.518;2024-02-21T06:26:31;10.00;99.90
31809;DHT22;18379;48.208;-1.518;2024-02-21T06:31:31;10.00;99.90
31809;DHT22;18379;48.208;-1.518;2024-02-21T06:36:32;10.00;99.90
31809;DHT22;18379;48.208;-1.518;2024-02-21T06:41:33;10.10;99.90
31809;DHT22;18379;48.208;-1.518;2024-02-21T06:46:35;10.10;99.90
31809;DHT22;18379;48.208;-1.518;2024-02-21T06:51:35;10.10;99.90
31809;DHT22;18379;48.208;-1.518;2024-02-21T06:56:39;10.10;99.90
31809;DHT22;18379;48.208;-1.518;2024-02-21T07:01:40;10.10;99.90
31809;DHT22;18379;48.208;-1.518;2024-02-21T07:06:40;10.10;99.90
31809;DHT22;18379;48.208;-1.518;2024-02-21T07:11:41;10.20;99.90
31809;DHT22;18379;48.208;-1.518;2024-02-21T07:16:42;10.30;99.90
31809;DHT22;18379;48.208;-1.518;2024-02-21T07:21:42;10.30;99.90
31809;DHT22;18379;48.208;-1.518;2024-02-21T07:26:43;10.30;99.90
31809;DHT22;18379;48.208;-1.518;2024-02-21T07:31:44;10.30;99.90
31809;DHT22;18379;48.208;-1.518;2024-02-21T07:36:45;10.30;99.90
31809;DHT22;18379;48.208;-1.518;2024-02-21T07:41:46;10.30;99.90
31809;DHT22;18379;48.208;-1.518;2024-02-21T07:46:48;10.40;99.90
31809;DHT22;18379;48.208;-1.518;2024-02-21T07:51:49;10.40;99.90
31809;DHT22;18379;48.208;-1.518;2024-02-21T07:56:49;10.40;99.90
31809;DHT22;18379;48.208;-1.518;2024-02-21T08:01:50;10.40;99.90
31809;DHT22;18379;48.208;-1.518;2024-02-21T08:06:54;10.40;99.90
31809;DHT22;18379;48.208;-1.518;2024-02-21T08:11:56;10.40;99.90
31809;DHT22;18379;48.208;-1.518;2024-02-21T08:16:56;10.50;99.90
31809;DHT22;18379;48.208;-1.518;2024-02-21T08:21:57;10.50;99.90
31809;DHT22;18379;48.208;-1.518;2024-02-21T08:26:58;10.50;99.90
31809;DHT22;18379;48.208;-1.518;2024-02-21T08:31:58;10.40;99.90
31809;DHT22;18379;48.208;-1.518;2024-02-21T08:36:59;10.50;99.90
31809;DHT22;18379;48.208;-1.518;2024-02-21T08:42:00;10.50;99.90
31809;DHT22;18379;48.208;-1.518;2024-02-21T08:47:00;10.50;99.90
31809;DHT22;18379;48.208;-1.518;2024-02-21T08:52:04;10.50;99.90
31809;DHT22;18379;48.208;-1.518;2024-02-21T08:57:05;10.50;99.90
31809;DHT22;18379;48.208;-1.518;2024-02-21T09:02:06;10.50;99.90
31809;DHT22;18379;48.208;-1.518;2024-02-21T09:07:07;10.50;99.90
31809;DHT22;18379;48.208;-1.518;2024-02-21T09:12:08;10.60;99.90
31809;DHT22;18379;48.208;-1.518;2024-02-21T09:17:09;10.60;99.90
31809;DHT22;18379;48.208;-1.518;2024-02-21T09:22:10;10.60;99.90
31809;DHT22;18379;48.208;-1.518;2024-02-21T09:27:10;10.60;99.90
31809;DHT22;18379;48.208;-1.518;2024-02-21T09:32:11;10.60;99.90
31809;DHT22;18379;48.208;-1.518;2024-02-21T09:37:12;10.60;99.90
31809;DHT22;18379;48.208;-1.518;2024-02-21T09:42:14;10.60;99.90
31809;DHT22;18379;48.208;-1.518;2024-02-21T09:47:19;10.60;99.90
31809;DHT22;18379;48.208;-1.518;2024-02-21T09:52:23;10.70;99.90
31809;DHT22;18379;48.208;-1.518;2024-02-21T09:57:25;10.70;99.90
31809;DHT22;18379;48.208;-1.518;2024-02-21T10:02:25;10.70;99.90
31809;DHT22;18379;48.208;-1.518;2024-02-21T10:07:26;10.70;99.90
31809;DHT22;18379;48.208;-1.518;2024-02-21T10:12:27;10.80;99.90
31809;DHT22;18379;48.208;-1.518;2024-02-21T10:17:27;10.90;99.90
31809;DHT22;18379;48.208;-1.518;2024-02-21T10:22:28;10.90;99.90
31809;DHT22;18379;48.208;-1.518;2024-02-21T10:27:32;11.00;99.90
31809;DHT22;18379;48.208;-1.518;2024-02-21T10:32:32;11.00;99.90
31809;DHT22;18379;48.208;-1.518;2024-02-21T10:37:33;11.00;99.90
31809;DHT22;18379;48.208;-1.518;2024-02-21T10:42:35;11.10;99.90
31809;DHT22;18379;48.208;-1.518;2024-02-21T10:47:39;11.10;99.90
31809;DHT22;18379;48.208;-1.518;2024-02-21T10:52:54;11.20;99.90
31809;DHT22;18379;48.208;-1.518;2024-02-21T10:57:58;11.30;99.90
31809;DHT22;18379;48.208;-1.518;2024-02-21T11:03:02;11.40;99.90
31809;DHT22;18379;48.208;-1.518;2024-02-21T11:08:06;11.40;99.90
31809;DHT22;18379;48.208;-1.518;2024-02-21T11:13:10;11.40;99.90
31809;DHT22;18379;48.208;-1.518;2024-02-21T11:18:11;11.40;99.90
31809;DHT22;18379;48.208;-1.518;2024-02-21T11:23:12;11.50;99.90
31809;DHT22;18379;48.208;-1.518;2024-02-21T11:28:13;11.50;99.90
31809;DHT22;18379;48.208;-1.518;2024-02-21T11:33:13;11.50;99.90
31809;DHT22;18379;48.208;-1.518;2024-02-21T11:38:14;11.60;99.90
31809;DHT22;18379;48.208;-1.518;2024-02-21T11:43:18;11.50;99.90
31809;DHT22;18379;48.208;-1.518;2024-02-21T11:48:18;11.50;99.90
31809;DHT22;18379;48.208;-1.518;2024-02-21T11:53:20;11.60;99.90
31809;DHT22;18379;48.208;-1.518;2024-02-21T11:58:21;11.50;99.90
31809;DHT22;18379;48.208;-1.518;2024-02-21T12:03:22;11.50;99.90
31809;DHT22;18379;48.208;-1.518;2024-02-21T12:08:23;11.50;99.90
31809;DHT22;18379;48.208;-1.518;2024-02-21T12:13:24;11.50;99.90
31809;DHT22;18379;48.208;-1.518;2024-02-21T12:18:24;11.60;99.90
31809;DHT22;18379;48.208;-1.518;2024-02-21T12:23:27;11.60;99.90
31809;DHT22;18379;48.208;-1.518;2024-02-21T12:28:27;11.50;99.90
31809;DHT22;18379;48.208;-1.518;2024-02-21T12:33:28;11.40;99.90
31809;DHT22;18379;48.208;-1.518;2024-02-21T12:38:29;11.30;99.90
31809;DHT22;18379;48.208;-1.518;2024-02-21T12:43:30;11.20;99.90
31809;DHT22;18379;48.208;-1.518;2024-02-21T12:48:30;11.20;99.90
31809;DHT22;18379;48.208;-1.518;2024-02-21T12:53:31;11.10;99.90
31809;DHT22;18379;48.208;-1.518;2024-02-21T12:58:32;11.10;99.90
31809;DHT22;18379;48.208;-1.518;2024-02-21T13:03:33;11.10;99.90
31809;DHT22;18379;48.208;-1.518;2024-02-21T13:08:33;11.10;99.90
31809;DHT22;18379;48.208;-1.518;2024-02-21T13:13:35;11.00;99.90
31809;DHT22;18379;48.208;-1.518;2024-02-21T13:18:36;11.00;99.90
31809;DHT22;18379;48.208;-1.518;2024-02-21T13:23:40;11.00;99.90
31809;DHT22;18379;48.208;-1.518;2024-02-21T13:28:40;11.00;99.90
31809;DHT22;18379;48.208;-1.518;2024-02-21T13:33:41;10.90;99.90
31809;DHT22;18379;48.208;-1.518;2024-02-21T13:38:42;10.90;99.90
31809;DHT22;18379;48.208;-1.518;2024-02-21T13:43:42;10.90;99.90
31809;DHT22;18379;48.208;-1.518;2024-02-21T13:48:43;10.90;99.90
31809;DHT22;18379;48.208;-1.518;2024-02-21T13:53:44;10.90;99.90
31809;DHT22;18379;48.208;-1.518;2024-02-21T13:58:44;10.90;99.90
31809;DHT22;18379;48.208;-1.518;2024-02-21T14:03:45;10.90;99.90
31809;DHT22;18379;48.208;-1.518;2024-02-21T14:08:46;10.90;99.90
31809;DHT22;18379;48.208;-1.518;2024-02-21T14:13:46;11.00;99.90
31809;DHT22;18379;48.208;-1.518;2024-02-21T14:18:47;11.10;99.90
31809;DHT22;18379;48.208;-1.518;2024-02-21T14:23:48;11.10;99.90
31809;DHT22;18379;48.208;-1.518;2024-02-21T14:28:49;11.20;99.90
31809;DHT22;18379;48.208;-1.518;2024-02-21T14:33:50;11.30;99.90
31809;DHT22;18379;48.208;-1.518;2024-02-21T14:38:50;11.30;99.90
31809;DHT22;18379;48.208;-1.518;2024-02-21T14:43:51;11.30;99.90
31809;DHT22;18379;48.208;-1.518;2024-02-21T14:48:52;11.30;99.90
31809;DHT22;18379;48.208;-1.518;2024-02-21T14:53:53;11.40;99.90
31809;DHT22;18379;48.208;-1.518;2024-02-21T14:58:55;11.40;99.90
31809;DHT22;18379;48.208;-1.518;2024-02-21T15:03:56;11.50;99.90
31809;DHT22;18379;48.208;-1.518;2024-02-21T15:08:57;11.60;99.90
31809;DHT22;18379;48.208;-1.518;2024-02-21T15:13:59;11.60;99.90
31809;DHT22;18379;48.208;-1.518;2024-02-21T15:18:59;11.70;99.90
31809;DHT22;18379;48.208;-1.518;2024-02-21T15:24:00;11.80;99.90
31809;DHT22;18379;48.208;-1.518;2024-02-21T15:29:02;11.80;99.90
31809;DHT22;18379;48.208;-1.518;2024-02-21T15:34:03;11.90;99.90
31809;DHT22;18379;48.208;-1.518;2024-02-21T15:39:03;12.00;99.90
31809;DHT22;18379;48.208;-1.518;2024-02-21T15:44:05;12.00;99.90
31809;DHT22;18379;48.208;-1.518;2024-02-21T15:49:05;12.10;99.90
31809;DHT22;18379;48.208;-1.518;2024-02-21T15:54:07;12.20;99.90
31809;DHT22;18379;48.208;-1.518;2024-02-21T15:59:09;12.30;99.90
31809;DHT22;18379;48.208;-1.518;2024-02-21T16:04:11;12.40;99.90
31809;DHT22;18379;48.208;-1.518;2024-02-21T16:09:12;12.40;99.90
31809;DHT22;18379;48.208;-1.518;2024-02-21T16:14:12;12.50;99.90
31809;DHT22;18379;48.208;-1.518;2024-02-21T16:19:13;12.50;99.90
31809;DHT22;18379;48.208;-1.518;2024-02-21T16:24:14;12.60;99.90
31809;DHT22;18379;48.208;-1.518;2024-02-21T16:29:15;12.50;99.90
31809;DHT22;18379;48.208;-1.518;2024-02-21T16:34:16;12.60;99.90
31809;DHT22;18379;48.208;-1.518;2024-02-21T16:39:17;12.60;99.90
31809;DHT22;18379;48.208;-1.518;2024-02-21T16:44:17;12.60;99.90
31809;DHT22;18379;48.208;-1.518;2024-02-21T16:49:18;12.70;99.90
31809;DHT22;18379;48.208;-1.518;2024-02-21T16:54:26;12.70;99.90
31809;DHT22;18379;48.208;-1.518;2024-02-21T16:59:26;12.60;99.90
31809;DHT22;18379;48.208;-1.518;2024-02-21T17:04:27;12.70;99.90
31809;DHT22;18379;48.208;-1.518;2024-02-21T17:09:28;12.70;99.90
31809;DHT22;18379;48.208;-1.518;2024-02-21T17:14:29;12.70;99.90
31809;DHT22;18379;48.208;-1.518;2024-02-21T17:19:30;12.70;99.90
31809;DHT22;18379;48.208;-1.518;2024-02-21T17:24:31;12.70;99.90
31809;DHT22;18379;48.208;-1.518;2024-02-21T17:29:32;12.70;99.90
31809;DHT22;18379;48.208;-1.518;2024-02-21T17:34:33;12.70;99.90
31809;DHT22;18379;48.208;-1.518;2024-02-21T17:39:33;12.70;99.90
31809;DHT22;18379;48.208;-1.518;2024-02-21T17:44:34;12.80;99.90
31809;DHT22;18379;48.208;-1.518;2024-02-21T17:49:36;12.80;99.90
31809;DHT22;18379;48.208;-1.518;2024-02-21T17:54:37;12.80;99.90
31809;DHT22;18379;48.208;-1.518;2024-02-21T17:59:44;12.80;99.90
31809;DHT22;18379;48.208;-1.518;2024-02-21T18:04:46;12.80;99.90
31809;DHT22;18379;48.208;-1.518;2024-02-21T18:09:49;12.80;99.90
31809;DHT22;18379;48.208;-1.518;2024-02-21T18:14:50;12.80;99.90
31809;DHT22;18379;48.208;-1.518;2024-02-21T18:19:51;12.80;99.90
31809;DHT22;18379;48.208;-1.518;2024-02-21T18:24:52;12.80;99.90
31809;DHT22;18379;48.208;-1.518;2024-02-21T18:29:52;12.80;99.90
31809;DHT22;18379;48.208;-1.518;2024-02-21T18:34:53;12.90;99.90
31809;DHT22;18379;48.208;-1.518;2024-02-21T18:39:54;12.90;99.90
31809;DHT22;18379;48.208;-1.518;2024-02-21T18:44:55;12.90;99.90
31809;DHT22;18379;48.208;-1.518;2024-02-21T18:49:56;12.90;99.90
31809;DHT22;18379;48.208;-1.518;2024-02-21T18:54:57;12.90;99.90
31809;DHT22;18379;48.208;-1.518;2024-02-21T18:59:58;13.00;99.90
31809;DHT22;18379;48.208;-1.518;2024-02-21T19:04:58;12.90;99.90
31809;DHT22;18379;48.208;-1.518;2024-02-21T19:10:00;13.00;99.90
31809;DHT22;18379;48.208;-1.518;2024-02-21T19:15:00;13.00;99.90
31809;DHT22;18379;48.208;-1.518;2024-02-21T19:20:01;13.00;99.90
31809;DHT22;18379;48.208;-1.518;2024-02-21T19:25:02;13.00;99.90
31809;DHT22;18379;48.208;-1.518;2024-02-21T19:30:08;13.00;99.90
31809;DHT22;18379;48.208;-1.518;2024-02-21T19:35:11;13.00;99.90
31809;DHT22;18379;48.208;-1.518;2024-02-21T19:40:11;13.00;99.90
31809;DHT22;18379;48.208;-1.518;2024-02-21T19:45:13;12.90;99.90
31809;DHT22;18379;48.208;-1.518;2024-02-21T19:50:15;12.90;99.90
31809;DHT22;18379;48.208;-1.518;2024-02-21T19:55:21;12.90;99.90
31809;DHT22;18379;48.208;-1.518;2024-02-21T20:00:22;12.90;99.90
31809;DHT22;18379;48.208;-1.518;2024-02-21T20:05:22;13.00;99.90
31809;DHT22;18379;48.208;-1.518;2024-02-21T20:10:25;13.10;99.90
31809;DHT22;18379;48.208;-1.518;2024-02-21T20:15:25;13.10;99.90
31809;DHT22;18379;48.208;-1.518;2024-02-21T20:20:26;13.10;99.90
31809;DHT22;18379;48.208;-1.518;2024-02-21T20:25:33;13.00;99.90
31809;DHT22;18379;48.208;-1.518;2024-02-21T20:30:34;13.00;99.90
31809;DHT22;18379;48.208;-1.518;2024-02-21T20:35:34;13.00;99.90
31809;DHT22;18379;48.208;-1.518;2024-02-21T20:40:35;13.10;99.90
31809;DHT22;18379;48.208;-1.518;2024-02-21T20:45:36;13.10;99.90
31809;DHT22;18379;48.208;-1.518;2024-02-21T20:50:37;13.00;99.90
31809;DHT22;18379;48.208;-1.518;2024-02-21T20:55:38;13.10;99.90
31809;DHT22;18379;48.208;-1.518;2024-02-21T21:00:40;13.10;99.90
31809;DHT22;18379;48.208;-1.518;2024-02-21T21:05:40;13.10;99.90
31809;DHT22;18379;48.208;-1.518;2024-02-21T21:10:43;13.10;99.90
31809;DHT22;18379;48.208;-1.518;2024-02-21T21:15:44;13.00;99.90
31809;DHT22;18379;48.208;-1.518;2024-02-21T21:20:45;13.10;99.90
31809;DHT22;18379;48.208;-1.518;2024-02-21T21:25:45;13.10;99.90
31809;DHT22;18379;48.208;-1.518;2024-02-21T21:30:46;13.10;99.90
31809;DHT22;18379;48.208;-1.518;2024-02-21T21:35:47;13.10;99.90
31809;DHT22;18379;48.208;-1.518;2024-02-21T21:40:52;13.00;99.90
31809;DHT22;18379;48.208;-1.518;2024-02-21T21:45:52;13.10;99.90
31809;DHT22;18379;48.208;-1.518;2024-02-21T21:50:53;13.00;99.90
31809;DHT22;18379;48.208;-1.518;2024-02-21T21:55:54;13.00;99.90
31809;DHT22;18379;48.208;-1.518;2024-02-21T22:00:54;13.00;99.90
31809;DHT22;18379;48.208;-1.518;2024-02-21T22:05:55;13.00;99.90
31809;DHT22;18379;48.208;-1.518;2024-02-21T22:10:56;13.10;99.90
31809;DHT22;18379;48.208;-1.518;2024-02-21T22:15:57;13.10;99.90
31809;DHT22;18379;48.208;-1.518;2024-02-21T22:20:58;13.20;99.90
31809;DHT22;18379;48.208;-1.518;2024-02-21T22:25:59;13.10;99.90
31809;DHT22;18379;48.208;-1.518;2024-02-21T22:30:59;13.10;99.90
31809;DHT22;18379;48.208;-1.518;2024-02-21T22:36:00;13.10;99.90
31809;DHT22;18379;48.208;-1.518;2024-02-21T22:41:01;13.20;99.90
31809;DHT22;18379;48.208;-1.518;2024-02-21T22:46:01;13.10;99.90
31809;DHT22;18379;48.208;-1.518;2024-02-21T22:51:03;13.20;99.90
31809;DHT22;18379;48.208;-1.518;2024-02-21T22:56:04;13.10;99.90
31809;DHT22;18379;48.208;-1.518;2024-02-21T23:01:09;13.00;99.90
31809;DHT22;18379;48.208;-1.518;2024-02-21T23:06:10;13.10;99.90
31809;DHT22;18379;48.208;-1.518;2024-02-21T23:11:11;13.00;99.90
31809;DHT22;18379;48.208;-1.518;2024-02-21T23:16:11;13.00;99.90
31809;DHT22;18379;48.208;-1.518;2024-02-21T23:21:12;13.00;99.90
31809;DHT22;18379;48.208;-1.518;2024-02-21T23:26:12;13.10;99.90
31809;DHT22;18379;48.208;-1.518;2024-02-21T23:31:13;13.00;99.90
31809;DHT22;18379;48.208;-1.518;2024-02-21T23:36:14;13.00;99.90
31809;DHT22;18379;48.208;-1.518;2024-02-21T23:41:15;13.10;99.90
31809;DHT22;18379;48.208;-1.518;2024-02-21T23:46:18;13.00;99.90
31809;DHT22;18379;48.208;-1.518;2024-02-21T23:51:19;13.00;99.90
31809;DHT22;18379;48.208;-1.518;2024-02-21T23:56:20;13.00;99.90
